sensor_id;sensor_type;location;lat;lon;timestamp;pressure;altitude;pressure_sealevel;temperature;humidity
10992;BME280;5549;47.028;15.514;2023-01-27T00:01:09;96493.75;;;0.76;77.42
10992;BME280;5549;47.028;15.514;2023-01-27T00:03:38;96488.50;;;1.14;74.98
10992;BME280;5549;47.028;15.514;2023-01-27T00:06:05;96486.38;;;1.05;73.62
10992;BME280;5549;47.028;15.514;2023-01-27T00:08:37;96485.03;;;1.32;74.02
10992;BME280;5549;47.028;15.514;2023-01-27T00:11:05;96489.66;;;1.25;74.21
10992;BME280;5549;47.028;15.514;2023-01-27T00:13:51;96492.03;;;1.30;73.57
10992;BME280;5549;47.028;15.514;2023-01-27T00:16:18;96494.81;;;1.08;74.22
10992;BME280;5549;47.028;15.514;2023-01-27T00:18:48;96483.34;;;1.14;73.34
10992;BME280;5549;47.028;15.514;2023-01-27T00:21:15;96480.59;;;1.17;73.00
10992;BME280;5549;47.028;15.514;2023-01-27T00:24:00;96484.59;;;1.41;72.36
10992;BME280;5549;47.028;15.514;2023-01-27T00:26:45;96480.03;;;1.46;72.54
10992;BME280;5549;47.028;15.514;2023-01-27T00:29:14;96477.97;;;1.53;72.29
10992;BME280;5549;47.028;15.514;2023-01-27T00:31:41;96474.59;;;1.16;73.56
10992;BME280;5549;47.028;15.514;2023-01-27T00:34:27;96474.84;;;1.29;73.67
10992;BME280;5549;47.028;15.514;2023-01-27T00:36:54;96469.38;;;1.35;72.97
10992;BME280;5549;47.028;15.514;2023-01-27T00:39:21;96473.31;;;1.42;71.86
10992;BME280;5549;47.028;15.514;2023-01-27T00:41:49;96477.44;;;1.46;71.99
10992;BME280;5549;47.028;15.514;2023-01-27T00:44:18;96474.69;;;1.49;72.35
10992;BME280;5549;47.028;15.514;2023-01-27T00:46:45;96470.91;;;1.74;71.73
10992;BME280;5549;47.028;15.514;2023-01-27T00:49:13;96474.78;;;1.82;71.28
10992;BME280;5549;47.028;15.514;2023-01-27T00:51:43;96473.47;;;1.39;71.64
10992;BME280;5549;47.028;15.514;2023-01-27T00:54:10;96480.78;;;1.66;71.09
10992;BME280;5549;47.028;15.514;2023-01-27T00:56:39;96475.94;;;1.77;70.24
10992;BME280;5549;47.028;15.514;2023-01-27T00:59:07;96479.22;;;1.80;70.73
10992;BME280;5549;47.028;15.514;2023-01-27T01:01:36;96481.72;;;1.82;70.44
10992;BME280;5549;47.028;15.514;2023-01-27T01:04:07;96485.50;;;1.57;70.56
10992;BME280;5549;47.028;15.514;2023-01-27T01:06:35;96486.41;;;1.39;71.41
10992;BME280;5549;47.028;15.514;2023-01-27T01:09:03;96485.78;;;1.17;72.93
10992;BME280;5549;47.028;15.514;2023-01-27T01:11:32;96491.31;;;1.09;73.30
10992;BME280;5549;47.028;15.514;2023-01-27T01:14:00;96490.34;;;1.12;72.89
10992;BME280;5549;47.028;15.514;2023-01-27T01:16:27;96486.63;;;0.81;74.68
10992;BME280;5549;47.028;15.514;2023-01-27T01:18:57;96486.84;;;1.13;73.16
10992;BME280;5549;47.028;15.514;2023-01-27T01:21:24;96479.88;;;1.32;72.60
10992;BME280;5549;47.028;15.514;2023-01-27T01:23:52;96479.78;;;1.16;73.06
10992;BME280;5549;47.028;15.514;2023-01-27T01:26:19;96483.13;;;1.18;73.43
10992;BME280;5549;47.028;15.514;2023-01-27T01:28:47;96479.78;;;1.34;73.00
10992;BME280;5549;47.028;15.514;2023-01-27T01:31:18;96479.25;;;1.27;73.44
10992;BME280;5549;47.028;15.514;2023-01-27T01:33:47;96483.50;;;1.11;73.23
10992;BME280;5549;47.028;15.514;2023-01-27T01:36:18;96479.69;;;1.18;73.61
10992;BME280;5549;47.028;15.514;2023-01-27T01:38:46;96480.25;;;1.42;72.31
10992;BME280;5549;47.028;15.514;2023-01-27T01:41:18;96479.09;;;1.47;72.83
10992;BME280;5549;47.028;15.514;2023-01-27T01:43:46;96477.91;;;1.54;72.26
10992;BME280;5549;47.028;15.514;2023-01-27T01:46:17;96474.78;;;1.65;71.55
10992;BME280;5549;47.028;15.514;2023-01-27T01:48:47;96469.91;;;1.59;71.31
10992;BME280;5549;47.028;15.514;2023-01-27T01:51:20;96465.34;;;1.47;71.52
10992;BME280;5549;47.028;15.514;2023-01-27T01:53:52;96460.00;;;1.67;70.89
10992;BME280;5549;47.028;15.514;2023-01-27T01:56:24;96457.59;;;1.81;70.60
10992;BME280;5549;47.028;15.514;2023-01-27T01:58:56;96459.69;;;1.90;70.27
10992;BME280;5549;47.028;15.514;2023-01-27T02:01:28;96468.84;;;1.80;70.08
10992;BME280;5549;47.028;15.514;2023-01-27T02:03:58;96465.44;;;1.80;69.67
10992;BME280;5549;47.028;15.514;2023-01-27T02:06:28;96452.69;;;1.92;69.21
10992;BME280;5549;47.028;15.514;2023-01-27T02:08:56;96457.19;;;1.54;71.06
10992;BME280;5549;47.028;15.514;2023-01-27T02:11:23;96453.75;;;1.19;71.97
10992;BME280;5549;47.028;15.514;2023-01-27T02:13:51;96462.34;;;1.03;72.65
10992;BME280;5549;47.028;15.514;2023-01-27T02:16:22;96452.16;;;1.34;72.09
10992;BME280;5549;47.028;15.514;2023-01-27T02:18:50;96454.22;;;1.45;71.81
10992;BME280;5549;47.028;15.514;2023-01-27T02:21:18;96450.66;;;1.47;70.83
10992;BME280;5549;47.028;15.514;2023-01-27T02:23:56;96455.78;;;0.95;73.22
10992;BME280;5549;47.028;15.514;2023-01-27T02:26:32;96454.00;;;0.60;74.89
10992;BME280;5549;47.028;15.514;2023-01-27T02:29:04;96450.41;;;0.45;75.81
10992;BME280;5549;47.028;15.514;2023-01-27T02:31:32;96442.66;;;0.81;74.64
10992;BME280;5549;47.028;15.514;2023-01-27T02:34:06;96440.13;;;1.16;73.48
10992;BME280;5549;47.028;15.514;2023-01-27T02:36:43;96435.19;;;1.11;72.82
10992;BME280;5549;47.028;15.514;2023-01-27T02:39:14;96435.81;;;1.16;72.89
10992;BME280;5549;47.028;15.514;2023-01-27T02:41:48;96446.41;;;0.93;73.65
10992;BME280;5549;47.028;15.514;2023-01-27T02:44:16;96449.72;;;1.14;73.16
10992;BME280;5549;47.028;15.514;2023-01-27T02:46:46;96449.59;;;1.34;72.64
10992;BME280;5549;47.028;15.514;2023-01-27T02:49:14;96446.22;;;1.49;72.06
10992;BME280;5549;47.028;15.514;2023-01-27T02:51:42;96445.47;;;1.65;72.08
10992;BME280;5549;47.028;15.514;2023-01-27T02:54:14;96450.13;;;1.75;72.16
10992;BME280;5549;47.028;15.514;2023-01-27T02:56:42;96444.41;;;1.86;71.51
10992;BME280;5549;47.028;15.514;2023-01-27T02:59:13;96435.47;;;1.91;71.43
10992;BME280;5549;47.028;15.514;2023-01-27T03:01:40;96436.75;;;2.00;70.58
10992;BME280;5549;47.028;15.514;2023-01-27T03:04:08;96436.00;;;1.98;70.05
10992;BME280;5549;47.028;15.514;2023-01-27T03:06:41;96439.06;;;1.89;69.86
10992;BME280;5549;47.028;15.514;2023-01-27T03:09:09;96436.09;;;1.79;69.97
10992;BME280;5549;47.028;15.514;2023-01-27T03:11:36;96436.47;;;1.72;70.10
10992;BME280;5549;47.028;15.514;2023-01-27T03:14:23;96423.69;;;1.86;69.93
10992;BME280;5549;47.028;15.514;2023-01-27T03:17:08;96425.06;;;1.76;70.21
10992;BME280;5549;47.028;15.514;2023-01-27T03:19:54;96412.72;;;1.81;70.23
10992;BME280;5549;47.028;15.514;2023-01-27T03:22:21;96414.84;;;1.90;70.12
10992;BME280;5549;47.028;15.514;2023-01-27T03:24:49;96415.28;;;1.98;70.00
10992;BME280;5549;47.028;15.514;2023-01-27T03:27:17;96413.97;;;2.07;70.39
10992;BME280;5549;47.028;15.514;2023-01-27T03:29:46;96416.38;;;2.10;70.21
10992;BME280;5549;47.028;15.514;2023-01-27T03:32:25;96413.38;;;2.17;70.53
10992;BME280;5549;47.028;15.514;2023-01-27T03:34:53;96415.75;;;2.22;70.76
10992;BME280;5549;47.028;15.514;2023-01-27T03:37:27;96411.81;;;2.31;70.95
10992;BME280;5549;47.028;15.514;2023-01-27T03:40:12;96415.16;;;2.33;70.65
10992;BME280;5549;47.028;15.514;2023-01-27T03:43:01;96413.31;;;2.35;70.93
10992;BME280;5549;47.028;15.514;2023-01-27T03:45:48;96420.94;;;2.38;70.76
10992;BME280;5549;47.028;15.514;2023-01-27T03:48:33;96415.59;;;2.41;70.15
10992;BME280;5549;47.028;15.514;2023-01-27T03:51:03;96412.75;;;2.45;69.88
10992;BME280;5549;47.028;15.514;2023-01-27T03:53:32;96418.75;;;2.46;70.27
10992;BME280;5549;47.028;15.514;2023-01-27T03:55:59;96408.41;;;2.46;69.78
10992;BME280;5549;47.028;15.514;2023-01-27T03:58:31;96409.31;;;2.45;69.47
10992;BME280;5549;47.028;15.514;2023-01-27T04:01:05;96404.88;;;2.47;68.93
10992;BME280;5549;47.028;15.514;2023-01-27T04:03:40;96404.88;;;2.47;69.52
10992;BME280;5549;47.028;15.514;2023-01-27T04:06:33;96403.13;;;2.47;69.13
10992;BME280;5549;47.028;15.514;2023-01-27T04:09:30;96402.13;;;2.50;69.24
10992;BME280;5549;47.028;15.514;2023-01-27T04:12:05;96404.56;;;2.53;68.58
10992;BME280;5549;47.028;15.514;2023-01-27T04:14:37;96400.28;;;2.52;68.48
10992;BME280;5549;47.028;15.514;2023-01-27T04:17:12;96396.34;;;2.45;68.27
10992;BME280;5549;47.028;15.514;2023-01-27T04:19:43;96396.03;;;2.35;68.32
10992;BME280;5549;47.028;15.514;2023-01-27T04:22:14;96398.53;;;2.37;68.19
10992;BME280;5549;47.028;15.514;2023-01-27T04:24:44;96398.38;;;2.40;68.25
10992;BME280;5549;47.028;15.514;2023-01-27T04:27:14;96394.84;;;2.41;68.58
10992;BME280;5549;47.028;15.514;2023-01-27T04:29:42;96395.53;;;2.44;68.75
10992;BME280;5549;47.028;15.514;2023-01-27T04:32:12;96400.63;;;2.30;69.36
10992;BME280;5549;47.028;15.514;2023-01-27T04:34:41;96395.03;;;2.38;69.25
10992;BME280;5549;47.028;15.514;2023-01-27T04:37:11;96399.88;;;2.28;68.96
10992;BME280;5549;47.028;15.514;2023-01-27T04:39:40;96398.69;;;2.18;69.86
10992;BME280;5549;47.028;15.514;2023-01-27T04:42:10;96398.28;;;2.25;69.90
10992;BME280;5549;47.028;15.514;2023-01-27T04:44:40;96401.19;;;2.19;69.81
10992;BME280;5549;47.028;15.514;2023-01-27T04:47:08;96403.34;;;2.11;70.48
10992;BME280;5549;47.028;15.514;2023-01-27T04:49:37;96409.63;;;2.07;70.89
10992;BME280;5549;47.028;15.514;2023-01-27T04:52:04;96406.09;;;2.08;71.72
10992;BME280;5549;47.028;15.514;2023-01-27T04:54:32;96409.50;;;1.93;72.24
10992;BME280;5549;47.028;15.514;2023-01-27T04:57:00;96411.81;;;1.82;72.93
10992;BME280;5549;47.028;15.514;2023-01-27T04:59:29;96411.38;;;1.56;74.30
10992;BME280;5549;47.028;15.514;2023-01-27T05:01:56;96422.78;;;1.52;74.40
10992;BME280;5549;47.028;15.514;2023-01-27T05:04:24;96412.50;;;1.68;74.36
10992;BME280;5549;47.028;15.514;2023-01-27T05:06:54;96412.13;;;1.76;74.56
10992;BME280;5549;47.028;15.514;2023-01-27T05:09:22;96411.81;;;1.82;73.71
10992;BME280;5549;47.028;15.514;2023-01-27T05:11:50;96410.91;;;1.83;73.64
10992;BME280;5549;47.028;15.514;2023-01-27T05:14:18;96405.56;;;1.86;73.27
10992;BME280;5549;47.028;15.514;2023-01-27T05:16:48;96408.81;;;1.89;73.74
10992;BME280;5549;47.028;15.514;2023-01-27T05:19:16;96413.16;;;1.89;73.62
10992;BME280;5549;47.028;15.514;2023-01-27T05:21:43;96412.84;;;1.95;73.35
10992;BME280;5549;47.028;15.514;2023-01-27T05:24:14;96416.59;;;1.89;72.70
10992;BME280;5549;47.028;15.514;2023-01-27T05:26:42;96413.13;;;1.39;74.58
10992;BME280;5549;47.028;15.514;2023-01-27T05:29:09;96417.31;;;1.24;75.23
10992;BME280;5549;47.028;15.514;2023-01-27T05:31:37;96416.41;;;1.08;76.11
10992;BME280;5549;47.028;15.514;2023-01-27T05:34:04;96425.78;;;0.74;78.41
10992;BME280;5549;47.028;15.514;2023-01-27T05:36:32;96430.38;;;0.86;78.88
10992;BME280;5549;47.028;15.514;2023-01-27T05:38:59;96428.50;;;1.07;77.88
10992;BME280;5549;47.028;15.514;2023-01-27T05:41:30;96423.84;;;1.14;77.67
10992;BME280;5549;47.028;15.514;2023-01-27T05:43:57;96423.72;;;1.17;77.29
10992;BME280;5549;47.028;15.514;2023-01-27T05:46:27;96422.94;;;1.15;77.28
10992;BME280;5549;47.028;15.514;2023-01-27T05:49:01;96425.47;;;1.16;76.87
10992;BME280;5549;47.028;15.514;2023-01-27T05:51:31;96418.69;;;1.14;76.82
10992;BME280;5549;47.028;15.514;2023-01-27T05:53:59;96422.19;;;1.13;77.05
10992;BME280;5549;47.028;15.514;2023-01-27T05:56:28;96427.22;;;1.16;76.80
10992;BME280;5549;47.028;15.514;2023-01-27T05:58:57;96429.56;;;1.20;76.92
10992;BME280;5549;47.028;15.514;2023-01-27T06:01:29;96428.03;;;1.16;76.58
10992;BME280;5549;47.028;15.514;2023-01-27T06:03:57;96427.66;;;1.24;76.43
10992;BME280;5549;47.028;15.514;2023-01-27T06:06:27;96430.72;;;1.32;76.13
10992;BME280;5549;47.028;15.514;2023-01-27T06:08:57;96438.63;;;1.29;75.75
10992;BME280;5549;47.028;15.514;2023-01-27T06:11:25;96436.19;;;1.26;76.28
10992;BME280;5549;47.028;15.514;2023-01-27T06:13:56;96437.78;;;1.28;75.64
10992;BME280;5549;47.028;15.514;2023-01-27T06:16:24;96438.63;;;1.29;75.85
10992;BME280;5549;47.028;15.514;2023-01-27T06:18:53;96434.50;;;1.42;76.14
10992;BME280;5549;47.028;15.514;2023-01-27T06:21:21;96437.56;;;1.50;75.84
10992;BME280;5549;47.028;15.514;2023-01-27T06:23:48;96436.34;;;1.57;75.59
10992;BME280;5549;47.028;15.514;2023-01-27T06:26:17;96434.19;;;1.66;75.64
10992;BME280;5549;47.028;15.514;2023-01-27T06:28:47;96432.91;;;1.74;75.00
10992;BME280;5549;47.028;15.514;2023-01-27T06:31:19;96432.53;;;1.82;74.95
10992;BME280;5549;47.028;15.514;2023-01-27T06:33:48;96431.38;;;1.87;75.00
10992;BME280;5549;47.028;15.514;2023-01-27T06:36:20;96426.72;;;1.94;74.30
10992;BME280;5549;47.028;15.514;2023-01-27T06:38:48;96427.47;;;1.96;74.29
10992;BME280;5549;47.028;15.514;2023-01-27T06:41:16;96426.22;;;2.03;74.11
10992;BME280;5549;47.028;15.514;2023-01-27T06:43:46;96429.41;;;2.08;74.07
10992;BME280;5549;47.028;15.514;2023-01-27T06:46:18;96425.75;;;2.12;74.01
10992;BME280;5549;47.028;15.514;2023-01-27T06:48:45;96417.91;;;2.14;74.10
10992;BME280;5549;47.028;15.514;2023-01-27T06:51:14;96423.91;;;2.14;73.47
10992;BME280;5549;47.028;15.514;2023-01-27T06:53:42;96434.13;;;2.17;73.25
10992;BME280;5549;47.028;15.514;2023-01-27T06:56:09;96429.53;;;2.22;72.91
10992;BME280;5549;47.028;15.514;2023-01-27T06:58:37;96430.38;;;2.23;73.10
10992;BME280;5549;47.028;15.514;2023-01-27T07:01:05;96438.81;;;2.27;72.65
10992;BME280;5549;47.028;15.514;2023-01-27T07:03:36;96428.53;;;2.56;79.02
10992;BME280;5549;47.028;15.514;2023-01-27T07:06:04;96425.81;;;3.05;83.50
10992;BME280;5549;47.028;15.514;2023-01-27T07:08:32;96431.09;;;3.49;82.68
10992;BME280;5549;47.028;15.514;2023-01-27T07:11:02;96428.84;;;3.88;80.48
10992;BME280;5549;47.028;15.514;2023-01-27T07:13:30;96433.59;;;4.24;77.63
10992;BME280;5549;47.028;15.514;2023-01-27T07:15:58;96423.53;;;4.60;74.76
10992;BME280;5549;47.028;15.514;2023-01-27T07:18:26;96422.31;;;4.93;72.95
10992;BME280;5549;47.028;15.514;2023-01-27T07:20:57;96422.25;;;5.21;70.53
10992;BME280;5549;47.028;15.514;2023-01-27T07:23:25;96426.59;;;5.47;69.64
10992;BME280;5549;47.028;15.514;2023-01-27T07:25:53;96425.69;;;5.74;68.48
10992;BME280;5549;47.028;15.514;2023-01-27T07:28:20;96429.47;;;5.95;67.01
10992;BME280;5549;47.028;15.514;2023-01-27T07:30:48;96424.78;;;6.13;65.03
10992;BME280;5549;47.028;15.514;2023-01-27T07:33:15;96429.47;;;6.21;64.29
10992;BME280;5549;47.028;15.514;2023-01-27T07:35:43;96426.97;;;6.32;63.86
10992;BME280;5549;47.028;15.514;2023-01-27T07:38:12;96432.78;;;6.48;64.43
10992;BME280;5549;47.028;15.514;2023-01-27T07:40:39;96433.81;;;6.58;62.55
10992;BME280;5549;47.028;15.514;2023-01-27T07:43:08;96436.72;;;6.66;62.07
10992;BME280;5549;47.028;15.514;2023-01-27T07:45:37;96432.63;;;6.75;60.87
10992;BME280;5549;47.028;15.514;2023-01-27T07:48:06;96438.66;;;6.26;60.43
10992;BME280;5549;47.028;15.514;2023-01-27T07:50:35;96443.72;;;5.77;60.34
10992;BME280;5549;47.028;15.514;2023-01-27T07:53:04;96446.19;;;5.53;60.52
10992;BME280;5549;47.028;15.514;2023-01-27T07:55:33;96447.91;;;5.13;60.50
10992;BME280;5549;47.028;15.514;2023-01-27T07:58:01;96451.13;;;4.90;60.83
10992;BME280;5549;47.028;15.514;2023-01-27T08:00:31;96449.75;;;4.14;61.13
10992;BME280;5549;47.028;15.514;2023-01-27T08:03:00;96460.66;;;3.91;62.16
10992;BME280;5549;47.028;15.514;2023-01-27T08:05:31;96463.25;;;3.77;62.40
10992;BME280;5549;47.028;15.514;2023-01-27T08:07:59;96467.13;;;3.70;62.90
10992;BME280;5549;47.028;15.514;2023-01-27T08:10:29;96472.72;;;3.32;64.09
10992;BME280;5549;47.028;15.514;2023-01-27T08:12:58;96466.91;;;3.13;64.37
10992;BME280;5549;47.028;15.514;2023-01-27T08:15:28;96466.09;;;2.97;64.60
10992;BME280;5549;47.028;15.514;2023-01-27T08:17:58;96475.53;;;2.50;66.98
10992;BME280;5549;47.028;15.514;2023-01-27T08:20:28;96478.63;;;2.41;67.18
10992;BME280;5549;47.028;15.514;2023-01-27T08:22:55;96479.78;;;2.36;66.87
10992;BME280;5549;47.028;15.514;2023-01-27T08:25:24;96487.19;;;1.93;68.32
10992;BME280;5549;47.028;15.514;2023-01-27T08:27:53;96490.47;;;1.97;68.61
10992;BME280;5549;47.028;15.514;2023-01-27T08:30:23;96496.34;;;1.83;68.90
10992;BME280;5549;47.028;15.514;2023-01-27T08:32:52;96493.97;;;1.78;68.69
10992;BME280;5549;47.028;15.514;2023-01-27T08:35:19;96500.28;;;1.73;68.89
10992;BME280;5549;47.028;15.514;2023-01-27T08:37:47;96497.53;;;1.58;69.77
10992;BME280;5549;47.028;15.514;2023-01-27T08:40:16;96500.28;;;1.73;68.95
10992;BME280;5549;47.028;15.514;2023-01-27T08:42:43;96501.19;;;1.72;69.57
10992;BME280;5549;47.028;15.514;2023-01-27T08:45:11;96500.28;;;1.73;70.39
10992;BME280;5549;47.028;15.514;2023-01-27T08:47:42;96497.63;;;1.91;69.96
10992;BME280;5549;47.028;15.514;2023-01-27T08:50:10;96491.75;;;1.71;71.30
10992;BME280;5549;47.028;15.514;2023-01-27T08:52:40;96503.38;;;1.45;71.30
10992;BME280;5549;47.028;15.514;2023-01-27T08:55:08;96502.31;;;1.49;71.95
10992;BME280;5549;47.028;15.514;2023-01-27T08:57:38;96500.34;;;1.01;73.90
10992;BME280;5549;47.028;15.514;2023-01-27T09:00:10;96499.06;;;0.73;74.67
10992;BME280;5549;47.028;15.514;2023-01-27T09:02:38;96508.75;;;0.49;76.79
10992;BME280;5549;47.028;15.514;2023-01-27T09:05:08;96509.81;;;0.64;76.17
10992;BME280;5549;47.028;15.514;2023-01-27T09:07:35;96505.53;;;1.01;75.29
10992;BME280;5549;47.028;15.514;2023-01-27T09:10:04;96504.19;;;1.11;74.81
10992;BME280;5549;47.028;15.514;2023-01-27T09:12:34;96507.19;;;1.02;76.13
10992;BME280;5549;47.028;15.514;2023-01-27T09:15:05;96511.25;;;1.07;75.40
10992;BME280;5549;47.028;15.514;2023-01-27T09:17:33;96514.88;;;1.03;76.02
10992;BME280;5549;47.028;15.514;2023-01-27T09:20:00;96520.34;;;0.97;76.29
10992;BME280;5549;47.028;15.514;2023-01-27T09:22:29;96523.16;;;0.92;77.07
10992;BME280;5549;47.028;15.514;2023-01-27T09:24:57;96526.56;;;1.29;75.74
10992;BME280;5549;47.028;15.514;2023-01-27T09:27:24;96530.47;;;1.38;75.20
10992;BME280;5549;47.028;15.514;2023-01-27T09:29:54;96529.41;;;1.42;74.72
10992;BME280;5549;47.028;15.514;2023-01-27T09:32:22;96524.59;;;1.34;74.13
10992;BME280;5549;47.028;15.514;2023-01-27T09:34:49;96523.00;;;1.32;73.50
10992;BME280;5549;47.028;15.514;2023-01-27T09:37:17;96530.19;;;1.08;74.43
10992;BME280;5549;47.028;15.514;2023-01-27T09:39:49;96525.63;;;1.13;74.20
10992;BME280;5549;47.028;15.514;2023-01-27T09:42:40;96518.13;;;0.89;74.46
10992;BME280;5549;47.028;15.514;2023-01-27T09:45:29;96517.88;;;1.13;73.63
10992;BME280;5549;47.028;15.514;2023-01-27T09:48:21;96523.19;;;1.10;74.85
10992;BME280;5549;47.028;15.514;2023-01-27T09:51:04;96514.38;;;1.14;74.34
10992;BME280;5549;47.028;15.514;2023-01-27T09:54:10;96515.94;;;1.35;73.14
10992;BME280;5549;47.028;15.514;2023-01-27T09:56:51;96511.16;;;1.45;72.75
10992;BME280;5549;47.028;15.514;2023-01-27T09:59:32;96513.19;;;1.21;73.70
10992;BME280;5549;47.028;15.514;2023-01-27T10:02:16;96518.09;;;1.61;71.94
10992;BME280;5549;47.028;15.514;2023-01-27T10:05:16;96510.34;;;1.96;72.03
10992;BME280;5549;47.028;15.514;2023-01-27T10:08:23;96496.75;;;2.08;70.78
10992;BME280;5549;47.028;15.514;2023-01-27T10:11:11;96492.03;;;2.16;70.63
10992;BME280;5549;47.028;15.514;2023-01-27T10:13:58;96491.22;;;2.32;70.11
10992;BME280;5549;47.028;15.514;2023-01-27T10:16:53;96488.16;;;2.41;69.79
10992;BME280;5549;47.028;15.514;2023-01-27T10:19:42;96482.13;;;2.40;69.68
10992;BME280;5549;47.028;15.514;2023-01-27T10:22:22;96478.63;;;2.57;68.21
10992;BME280;5549;47.028;15.514;2023-01-27T10:25:06;96478.22;;;2.80;67.98
10992;BME280;5549;47.028;15.514;2023-01-27T10:27:44;96479.06;;;2.81;67.33
10992;BME280;5549;47.028;15.514;2023-01-27T10:30:22;96476.97;;;2.87;67.20
10992;BME280;5549;47.028;15.514;2023-01-27T10:32:58;96477.13;;;2.69;67.42
10992;BME280;5549;47.028;15.514;2023-01-27T10:35:34;96473.47;;;2.88;67.43
10992;BME280;5549;47.028;15.514;2023-01-27T10:38:11;96467.28;;;2.75;67.85
10992;BME280;5549;47.028;15.514;2023-01-27T10:40:50;96466.94;;;2.97;67.69
10992;BME280;5549;47.028;15.514;2023-01-27T10:43:26;96459.69;;;3.18;66.97
10992;BME280;5549;47.028;15.514;2023-01-27T10:46:09;96463.44;;;3.28;67.55
10992;BME280;5549;47.028;15.514;2023-01-27T10:48:42;96461.56;;;3.46;67.40
10992;BME280;5549;47.028;15.514;2023-01-27T10:51:17;96464.72;;;3.21;65.52
10992;BME280;5549;47.028;15.514;2023-01-27T10:53:54;96460.50;;;3.34;65.95
10992;BME280;5549;47.028;15.514;2023-01-27T10:56:32;96462.00;;;3.38;65.24
10992;BME280;5549;47.028;15.514;2023-01-27T10:59:07;96460.31;;;3.53;65.19
10992;BME280;5549;47.028;15.514;2023-01-27T11:01:43;96453.28;;;3.09;65.92
10992;BME280;5549;47.028;15.514;2023-01-27T11:04:17;96458.72;;;3.05;66.50
10992;BME280;5549;47.028;15.514;2023-01-27T11:06:48;96450.41;;;3.14;66.61
10992;BME280;5549;47.028;15.514;2023-01-27T11:09:24;96447.97;;;3.27;66.43
10992;BME280;5549;47.028;15.514;2023-01-27T11:11:57;96457.91;;;3.34;66.35
10992;BME280;5549;47.028;15.514;2023-01-27T11:14:30;96457.81;;;3.36;65.56
10992;BME280;5549;47.028;15.514;2023-01-27T11:17:11;96446.25;;;3.41;65.43
10992;BME280;5549;47.028;15.514;2023-01-27T11:19:47;96443.56;;;3.13;66.20
10992;BME280;5549;47.028;15.514;2023-01-27T11:22:22;96437.78;;;3.08;66.33
10992;BME280;5549;47.028;15.514;2023-01-27T11:24:58;96439.47;;;3.09;66.55
10992;BME280;5549;47.028;15.514;2023-01-27T11:27:51;96440.78;;;3.16;66.40
10992;BME280;5549;47.028;15.514;2023-01-27T11:30:26;96437.00;;;3.21;65.91
10992;BME280;5549;47.028;15.514;2023-01-27T11:33:10;96439.50;;;3.23;66.08
10992;BME280;5549;47.028;15.514;2023-01-27T11:35:44;96441.44;;;3.19;65.72
10992;BME280;5549;47.028;15.514;2023-01-27T11:38:18;96434.28;;;3.09;65.45
10992;BME280;5549;47.028;15.514;2023-01-27T11:40:47;96428.13;;;3.26;65.30
10992;BME280;5549;47.028;15.514;2023-01-27T11:43:19;96431.78;;;3.37;64.89
10992;BME280;5549;47.028;15.514;2023-01-27T11:45:47;96425.47;;;3.11;65.86
10992;BME280;5549;47.028;15.514;2023-01-27T11:48:19;96428.97;;;2.80;67.02
10992;BME280;5549;47.028;15.514;2023-01-27T11:50:49;96426.19;;;2.99;66.12
10992;BME280;5549;47.028;15.514;2023-01-27T11:53:24;96422.28;;;2.45;67.06
10992;BME280;5549;47.028;15.514;2023-01-27T11:55:57;96413.66;;;2.60;66.48
10992;BME280;5549;47.028;15.514;2023-01-27T11:58:31;96417.72;;;2.96;66.64
10992;BME280;5549;47.028;15.514;2023-01-27T12:01:05;96414.56;;;3.20;66.16
10992;BME280;5549;47.028;15.514;2023-01-27T12:03:51;96417.84;;;3.24;65.82
10992;BME280;5549;47.028;15.514;2023-01-27T12:06:33;96415.81;;;3.29;66.05
10992;BME280;5549;47.028;15.514;2023-01-27T12:09:05;96410.44;;;3.32;65.89
10992;BME280;5549;47.028;15.514;2023-01-27T12:11:32;96409.44;;;3.35;65.96
10992;BME280;5549;47.028;15.514;2023-01-27T12:14:01;96408.06;;;3.43;65.59
10992;BME280;5549;47.028;15.514;2023-01-27T12:16:42;96408.16;;;3.42;65.33
10992;BME280;5549;47.028;15.514;2023-01-27T12:19:24;96406.00;;;3.34;64.11
10992;BME280;5549;47.028;15.514;2023-01-27T12:21:56;96401.47;;;3.08;64.97
10992;BME280;5549;47.028;15.514;2023-01-27T12:24:28;96395.09;;;3.13;65.60
10992;BME280;5549;47.028;15.514;2023-01-27T12:27:01;96401.25;;;3.27;65.09
10992;BME280;5549;47.028;15.514;2023-01-27T12:29:37;96391.78;;;3.26;64.92
10992;BME280;5549;47.028;15.514;2023-01-27T12:32:16;96389.69;;;3.32;64.55
10992;BME280;5549;47.028;15.514;2023-01-27T12:34:50;96391.56;;;3.44;63.88
10992;BME280;5549;47.028;15.514;2023-01-27T12:37:25;96389.78;;;3.61;63.83
10992;BME280;5549;47.028;15.514;2023-01-27T12:39:56;96388.00;;;3.61;64.18
10992;BME280;5549;47.028;15.514;2023-01-27T12:42:38;96385.41;;;3.61;63.86
10992;BME280;5549;47.028;15.514;2023-01-27T12:45:26;96387.66;;;3.37;63.18
10992;BME280;5549;47.028;15.514;2023-01-27T12:47:59;96375.25;;;3.42;63.55
10992;BME280;5549;47.028;15.514;2023-01-27T12:50:31;96383.25;;;3.53;63.77
10992;BME280;5549;47.028;15.514;2023-01-27T12:53:10;96374.91;;;3.48;63.49
10992;BME280;5549;47.028;15.514;2023-01-27T12:55:43;96374.19;;;3.61;63.56
10992;BME280;5549;47.028;15.514;2023-01-27T12:58:34;96374.94;;;3.63;63.27
10992;BME280;5549;47.028;15.514;2023-01-27T13:01:05;96372.03;;;3.53;63.49
10992;BME280;5549;47.028;15.514;2023-01-27T13:03:39;96372.88;;;3.53;63.78
10992;BME280;5549;47.028;15.514;2023-01-27T13:06:14;96379.38;;;3.31;63.82
10992;BME280;5549;47.028;15.514;2023-01-27T13:08:42;96380.44;;;3.42;63.60
10992;BME280;5549;47.028;15.514;2023-01-27T13:11:11;96372.88;;;3.53;63.86
10992;BME280;5549;47.028;15.514;2023-01-27T13:13:48;96370.56;;;3.49;64.07
10992;BME280;5549;47.028;15.514;2023-01-27T13:16:25;96371.59;;;3.31;65.05
10992;BME280;5549;47.028;15.514;2023-01-27T13:18:59;96374.84;;;3.34;64.87
10992;BME280;5549;47.028;15.514;2023-01-27T13:21:33;96368.47;;;3.40;64.05
10992;BME280;5549;47.028;15.514;2023-01-27T13:24:05;96363.00;;;3.44;63.76
10992;BME280;5549;47.028;15.514;2023-01-27T13:26:37;96363.41;;;3.52;63.84
10992;BME280;5549;47.028;15.514;2023-01-27T13:29:13;96363.53;;;3.35;64.47
10992;BME280;5549;47.028;15.514;2023-01-27T13:31:49;96371.38;;;3.49;64.72
10992;BME280;5549;47.028;15.514;2023-01-27T13:34:25;96375.19;;;3.14;64.48
10992;BME280;5549;47.028;15.514;2023-01-27T13:37:03;96366.88;;;3.37;64.90